Time;durP1;ratioP1;P1;durP2;ratioP2;P2;SDS_P1;SDS_P2;PMS_P1;PMS_P2;Temp;Humidity;BMP_temperature;BMP_pressure;BME280_temperature;BME280_humidity;BME280_pressure;Samples;Min_cycle;Max_cycle;Signal;HPM_P1;HPM_P2
2023/03/31 00:01:33;;;;;;;17.77;3.20;;;;;;;-143.48;88.74;118439.88;5074940;28;20028;-27
2023/03/31 00:04:05;;;;;;;31.05;4.22;;;;;;;-143.48;88.28;118439.88;5056736;28;20060;-27
2023/03/31 00:06:36;;;;;;;18.20;2.90;;;;;;;-143.48;88.42;118439.88;5075265;28;20020;-27
2023/03/31 00:09:06;;;;;;;18.65;3.30;;;;;;;-143.48;88.63;118439.88;5075015;28;20360;-27
2023/03/31 00:11:32;;;;;;;23.05;2.90;;;;;;;-143.48;88.55;118439.88;5074678;28;20020;-27
2023/03/31 00:13:57;;;;;;;19.13;2.83;;;;;;;-143.48;89.03;118439.88;5074902;28;20370;-28
2023/03/31 00:16:23;;;;;;;17.35;3.15;;;;;;;-143.48;88.98;118439.88;5074751;28;20078;-28
2023/03/31 00:18:49;;;;;;;21.30;3.25;;;;;;;-143.48;88.87;118439.88;5074732;28;20107;-27
2023/03/31 00:21:24;;;;;;;18.20;3.08;;;;;;;-143.48;89.13;118439.88;5074819;28;20051;-27
2023/03/31 00:23:54;;;;;;;22.88;3.97;;;;;;;-143.48;89.13;118439.88;5074610;28;20047;-27
2023/03/31 00:26:21;;;;;;;19.77;3.47;;;;;;;-143.48;89.22;118439.88;5074567;28;20023;-27
2023/03/31 00:28:47;;;;;;;21.45;3.30;;;;;;;-143.48;89.37;118439.88;5074754;28;20028;-28
2023/03/31 00:31:12;;;;;;;22.05;3.88;;;;;;;-143.48;89.72;118439.88;5074336;28;20028;-27
2023/03/31 00:33:37;;;;;;;18.90;3.03;;;;;;;-143.48;90.39;118439.88;5074582;28;20107;-27
2023/03/31 00:36:04;;;;;;;15.63;3.40;;;;;;;-143.48;90.39;118439.88;5074441;28;20042;-27
2023/03/31 00:38:31;;;;;;;25.95;3.72;;;;;;;-143.48;91.02;118439.88;5074382;28;20036;-27
2023/03/31 00:40:57;;;;;;;18.98;3.83;;;;;;;-143.48;91.19;118439.88;5074352;28;20025;-27
2023/03/31 00:43:27;;;;;;;21.45;3.60;;;;;;;-143.48;92.04;118439.88;5074099;28;20028;-28
2023/03/31 00:45:54;;;;;;;19.15;3.42;;;;;;;-143.48;92.21;118439.88;5074306;28;20027;-28
2023/03/31 00:48:20;;;;;;;21.10;3.85;;;;;;;-143.48;92.24;118439.88;5073965;28;20039;-28
2023/03/31 00:50:53;;;;;;;18.95;2.90;;;;;;;-143.48;92.63;118439.88;5073800;28;20020;-27
2023/03/31 00:53:23;;;;;;;16.95;3.70;;;;;;;-143.48;92.73;118439.88;5074123;28;20107;-27
2023/03/31 00:55:52;;;;;;;22.77;3.60;;;;;;;-143.48;93.36;118439.88;5073790;28;20026;-27
2023/03/31 00:58:19;;;;;;;13.48;3.28;;;;;;;-143.48;93.23;118439.88;5073849;28;20024;-28
2023/03/31 01:00:50;;;;;;;16.67;3.13;;;;;;;-143.48;92.90;118439.88;5073636;28;20356;-28
2023/03/31 01:03:17;;;;;;;22.73;3.10;;;;;;;-143.48;93.17;118439.88;5073743;28;20074;-28
2023/03/31 01:05:48;;;;;;;17.17;3.22;;;;;;;-143.48;93.55;118439.88;5073671;28;20082;-28
2023/03/31 01:08:16;;;;;;;13.95;2.80;;;;;;;-143.48;93.94;118439.88;5073889;28;20032;-28
2023/03/31 01:10:51;;;;;;;14.45;3.20;;;;;;;-143.48;93.76;118439.88;5073896;28;20459;-27
2023/03/31 01:13:18;;;;;;;19.80;3.15;;;;;;;-143.48;94.20;118439.88;5073485;28;20035;-28
2023/03/31 01:15:44;;;;;;;12.23;2.90;;;;;;;-143.48;95.28;118439.88;5073890;28;20024;-28
2023/03/31 01:18:12;;;;;;;11.57;2.67;;;;;;;-143.48;95.96;118439.88;5073574;28;20537;-28
2023/03/31 01:21:06;;;;;;;13.23;2.88;;;;;;;-143.48;96.25;118439.88;5055675;28;20020;-27
2023/03/31 01:23:41;;;;;;;9.15;2.47;;;;;;;-143.48;96.65;118439.88;5073640;28;20036;-28
2023/03/31 01:26:24;;;;;;;8.77;2.38;;;;;;;-143.48;96.44;118439.88;5073812;28;20486;-27
2023/03/31 01:29:03;;;;;;;15.82;2.97;;;;;;;-143.48;96.47;118439.88;5073719;28;20027;-28
2023/03/31 01:31:43;;;;;;;17.70;3.10;;;;;;;-143.48;96.65;118439.88;5073384;28;20028;-28
2023/03/31 01:34:20;;;;;;;10.95;3.15;;;;;;;-143.48;96.68;118439.88;5073563;28;20114;-28
2023/03/31 01:37:17;;;;;;;14.18;2.72;;;;;;;-143.48;96.49;118439.88;5073568;28;20524;-28
2023/03/31 01:39:51;;;;;;;13.38;2.75;;;;;;;-143.48;97.00;118439.88;5073611;28;20031;-28
2023/03/31 01:42:33;;;;;;;16.13;3.00;;;;;;;-143.48;96.71;118439.88;5073309;28;20029;-29
2023/03/31 01:45:27;;;;;;;14.80;3.40;;;;;;;-143.48;96.60;118439.88;5073456;28;20091;-28
2023/03/31 01:48:01;;;;;;;12.55;2.90;;;;;;;-143.48;96.24;118439.88;5038737;28;20040;-28
2023/03/31 01:50:32;;;;;;;13.23;2.85;;;;;;;-143.48;96.02;118439.88;5073301;28;20411;-28
2023/03/31 01:53:09;;;;;;;10.10;3.30;;;;;;;-143.48;95.98;118439.88;5073027;28;20020;-28
2023/03/31 01:55:57;;;;;;;13.85;2.70;;;;;;;-143.48;96.21;118439.88;5073479;28;20035;-28
2023/03/31 01:58:27;;;;;;;11.98;2.92;;;;;;;-143.48;96.32;118439.88;5032610;28;20494;-29
2023/03/31 02:01:04;;;;;;;9.85;3.20;;;;;;;-143.48;96.34;118439.88;5073121;28;20044;-28
2023/03/31 02:03:36;;;;;;;13.30;3.58;;;;;;;-143.48;96.14;118439.88;5073121;28;20060;-29
2023/03/31 02:06:14;;;;;;;15.70;3.42;;;;;;;-143.48;95.75;118439.88;5073218;28;20463;-29
2023/03/31 02:08:45;;;;;;;13.07;3.45;;;;;;;-143.48;96.30;118439.88;5073224;28;20024;-28
2023/03/31 02:11:10;;;;;;;15.40;4.15;;;;;;;-143.48;96.29;118439.88;5055062;28;20024;-29
2023/03/31 02:13:40;;;;;;;16.10;3.78;;;;;;;-143.48;96.51;118439.88;5072974;28;20028;-29
2023/03/31 02:16:10;;;;;;;13.52;3.60;;;;;;;-143.48;96.39;118439.88;5076907;28;20363;-28
2023/03/31 02:18:37;;;;;;;17.90;3.58;;;;;;;-143.48;96.87;118439.88;5077013;28;20459;-27
2023/03/31 02:21:06;;;;;;;12.90;3.33;;;;;;;-143.48;96.83;118439.88;5077309;28;20095;-28
2023/03/31 02:23:35;;;;;;;14.27;4.13;;;;;;;-143.48;97.45;118439.88;5076934;28;20036;-28
2023/03/31 02:26:14;;;;;;;15.88;3.58;;;;;;;-143.48;97.31;118439.88;5076974;28;20017;-28
2023/03/31 02:28:40;;;;;;;14.02;3.70;;;;;;;-143.48;97.32;118439.88;5076513;28;20081;-28
2023/03/31 02:31:11;;;;;;;16.08;3.83;;;;;;;-143.48;97.05;118439.88;5076550;28;20016;-28
2023/03/31 02:33:37;;;;;;;16.08;4.13;;;;;;;-143.48;97.19;118439.88;5076765;28;20029;-28
2023/03/31 02:36:02;;;;;;;16.73;3.95;;;;;;;-143.48;97.42;118439.88;5058549;28;20059;-28
2023/03/31 02:38:32;;;;;;;15.55;4.10;;;;;;;-143.48;97.96;118439.88;5076680;28;20024;-28
2023/03/31 02:40:58;;;;;;;14.32;4.45;;;;;;;-143.48;98.80;118439.88;5076407;28;20356;-28
2023/03/31 02:43:23;;;;;;;14.43;4.30;;;;;;;-143.48;99.24;118439.88;5076307;28;20100;-28
2023/03/31 02:45:50;;;;;;;17.00;4.55;;;;;;;-143.48;100.00;118439.88;5076329;28;20025;-28
2023/03/31 02:48:26;;;;;;;16.55;4.20;;;;;;;-143.48;100.00;118439.88;5076576;28;20028;-28
2023/03/31 02:51:07;;;;;;;19.00;4.60;;;;;;;-143.48;100.00;118439.88;5076375;28;20032;-28
2023/03/31 02:53:41;;;;;;;16.27;4.13;;;;;;;-143.48;100.00;118439.88;5058299;28;20036;-28
2023/03/31 02:56:43;;;;;;;17.05;3.90;;;;;;;-143.48;100.00;118439.88;5075991;28;20028;-28
2023/03/31 02:59:29;;;;;;;17.08;4.30;;;;;;;-143.48;100.00;118439.88;5076297;28;20491;-28
2023/03/31 03:02:16;;;;;;;19.45;4.18;;;;;;;-143.48;100.00;118439.88;5075686;28;20036;-28
2023/03/31 03:04:57;;;;;;;19.65;4.53;;;;;;;-143.48;100.00;118439.88;5076057;28;20052;-28
2023/03/31 03:07:33;;;;;;;16.15;4.38;;;;;;;-143.48;100.00;118439.88;5076274;28;20016;-28
2023/03/31 03:09:59;;;;;;;15.27;4.32;;;;;;;-143.48;100.00;118439.88;5041591;28;20039;-28
2023/03/31 03:12:26;;;;;;;15.85;4.32;;;;;;;-143.48;100.00;118439.88;5075843;28;20024;-28
2023/03/31 03:15:16;;;;;;;17.63;4.53;;;;;;;-143.48;100.00;118439.88;5075855;28;20111;-28
2023/03/31 03:17:45;;;;;;;20.60;5.20;;;;;;;-143.48;100.00;118439.88;5076394;28;20020;-28
2023/03/31 03:20:12;;;;;;;18.48;4.38;;;;;;;-143.48;100.00;118439.88;5076313;28;20031;-28
2023/03/31 03:22:39;;;;;;;21.48;4.53;;;;;;;-143.48;100.00;118439.88;5075587;28;20031;-29
2023/03/31 03:25:06;;;;;;;14.82;4.32;;;;;;;-143.48;100.00;118439.88;5075810;28;20024;-28
2023/03/31 03:27:31;;;;;;;13.35;4.07;;;;;;;-143.48;100.00;118439.88;5075852;28;20035;-28
2023/03/31 03:29:57;;;;;;;18.60;4.38;;;;;;;-143.48;100.00;118439.88;5075519;28;20386;-28
2023/03/31 03:32:22;;;;;;;19.80;3.75;;;;;;;-143.48;100.00;118439.88;5076014;28;20036;-28
2023/03/31 03:34:48;;;;;;;20.63;4.28;;;;;;;-143.48;100.00;118439.88;5075627;28;20021;-28
2023/03/31 03:37:13;;;;;;;19.30;3.83;;;;;;;-143.48;100.00;118439.88;5075352;28;20459;-28
2023/03/31 03:39:38;;;;;;;10.73;3.90;;;;;;;-143.48;100.00;118439.88;5075253;28;20044;-28
2023/03/31 03:42:04;;;;;;;12.15;3.45;;;;;;;-143.48;100.00;118439.88;5075620;28;20032;-28
2023/03/31 03:44:30;;;;;;;14.27;3.97;;;;;;;-143.48;100.00;118439.88;5075809;28;20056;-28
2023/03/31 03:46:55;;;;;;;12.85;3.42;;;;;;;-143.48;100.00;118439.88;5075431;28;20051;-28
2023/03/31 03:49:21;;;;;;;15.82;3.58;;;;;;;-143.48;100.00;118439.88;5075409;28;20020;-28
2023/03/31 03:51:46;;;;;;;15.45;3.22;;;;;;;-143.48;100.00;118439.88;5075235;28;20443;-28
2023/03/31 03:54:11;;;;;;;14.55;3.40;;;;;;;-143.48;100.00;118439.88;5075633;28;20027;-28
2023/03/31 03:56:37;;;;;;;10.20;3.30;;;;;;;-143.48;100.00;118439.88;5075109;28;20028;-29
2023/03/31 03:59:02;;;;;;;10.50;3.13;;;;;;;-143.48;100.00;118439.88;5074955;28;20032;-29
2023/03/31 04:01:28;;;;;;;16.60;3.45;;;;;;;-143.48;100.00;118439.88;5075687;28;20031;-29
2023/03/31 04:03:53;;;;;;;13.98;3.65;;;;;;;-143.48;100.00;118439.88;5075237;28;20071;-29
2023/03/31 04:06:18;;;;;;;13.02;3.90;;;;;;;-143.48;100.00;118439.88;5056910;28;20024;-29
2023/03/31 04:08:44;;;;;;;13.65;3.50;;;;;;;-143.48;100.00;118439.88;5074910;28;20453;-29
2023/03/31 04:11:18;;;;;;;11.35;3.70;;;;;;;-143.48;100.00;118439.88;5074963;28;20436;-29
2023/03/31 04:13:44;;;;;;;12.55;3.60;;;;;;;-143.48;100.00;118439.88;5074617;28;20021;-29
2023/03/31 04:16:10;;;;;;;14.32;4.97;;;;;;;-143.48;100.00;118439.88;5074562;28;20035;-29
2023/03/31 04:18:44;;;;;;;11.73;3.55;;;;;;;-143.48;100.00;118439.88;5074720;28;20382;-29
2023/03/31 04:21:14;;;;;;;14.20;2.92;;;;;;;-143.48;100.00;118439.88;5074741;28;20439;-28
2023/03/31 04:23:45;;;;;;;12.40;3.33;;;;;;;-143.48;100.00;118439.88;5074664;28;20023;-28
2023/03/31 04:26:11;;;;;;;10.52;3.08;;;;;;;-143.48;100.00;118439.88;5075165;28;20044;-28
2023/03/31 04:28:41;;;;;;;12.50;3.03;;;;;;;-143.48;100.00;118439.88;5074353;28;20025;-28
2023/03/31 04:31:14;;;;;;;9.35;3.10;;;;;;;-143.48;100.00;118439.88;5074164;28;20111;-28
2023/03/31 04:33:39;;;;;;;12.02;2.83;;;;;;;-143.48;100.00;118439.88;5074523;28;20044;-28
2023/03/31 04:36:16;;;;;;;8.88;2.30;;;;;;;-143.48;100.00;118439.88;5074505;28;20029;-29
2023/03/31 04:38:45;;;;;;;12.65;2.95;;;;;;;-143.48;100.00;118439.88;5073759;28;20058;-27
2023/03/31 04:41:14;;;;;;;7.30;2.20;;;;;;;-143.48;100.00;118439.88;5074375;28;20490;-27
2023/03/31 04:43:40;;;;;;;11.85;2.22;;;;;;;-143.48;100.00;118439.88;5074350;28;20029;-28
2023/03/31 04:46:05;;;;;;;11.60;2.58;;;;;;;-143.48;100.00;118439.88;5074005;28;20486;-28
2023/03/31 04:48:30;;;;;;;12.27;2.70;;;;;;;-143.48;100.00;118439.88;5073979;28;20021;-28
2023/03/31 04:50:56;;;;;;;7.90;2.10;;;;;;;-143.48;100.00;118439.88;5074024;28;20024;-28
2023/03/31 04:53:21;;;;;;;9.70;2.13;;;;;;;-143.48;100.00;118439.88;5074120;28;20028;-27
2023/03/31 04:55:48;;;;;;;10.50;2.22;;;;;;;-143.48;100.00;118439.88;5074079;28;20435;-27
2023/03/31 04:58:14;;;;;;;11.35;2.22;;;;;;;-143.48;100.00;118439.88;5073894;28;20467;-27
2023/03/31 05:00:39;;;;;;;12.07;2.08;;;;;;;-143.48;100.00;118439.88;5074037;28;20032;-28
2023/03/31 05:03:05;;;;;;;8.80;2.13;;;;;;;-143.48;100.00;118439.88;5074015;28;20025;-28
2023/03/31 05:05:31;;;;;;;10.32;2.60;;;;;;;-143.48;100.00;118439.88;5074006;28;20035;-27
2023/03/31 05:07:56;;;;;;;6.13;2.22;;;;;;;-143.48;100.00;118439.88;5073708;28;20383;-28
2023/03/31 05:10:21;;;;;;;11.32;2.50;;;;;;;-143.48;100.00;118439.88;5055761;28;20021;-27
2023/03/31 05:12:48;;;;;;;9.88;2.60;;;;;;;-143.48;100.00;118439.88;5073857;28;20485;-27
2023/03/31 05:15:13;;;;;;;13.30;2.95;;;;;;;-143.48;100.00;118439.88;5073708;28;20031;-28
2023/03/31 05:17:38;;;;;;;9.68;2.88;;;;;;;-143.48;100.00;118439.88;5073757;28;20021;-27
2023/03/31 05:20:07;;;;;;;12.27;2.67;;;;;;;-143.48;100.00;118439.88;5073855;28;20024;-28
2023/03/31 05:22:39;;;;;;;8.43;2.92;;;;;;;-143.48;100.00;118439.88;5073390;28;20102;-27
2023/03/31 05:25:07;;;;;;;10.43;2.67;;;;;;;-143.48;100.00;118439.88;5073684;28;20029;-28
2023/03/31 05:27:33;;;;;;;13.02;2.97;;;;;;;-143.48;100.00;118439.88;5073404;28;20427;-28
2023/03/31 05:29:58;;;;;;;11.23;2.47;;;;;;;-143.48;100.00;118439.88;5073361;28;20035;-28
2023/03/31 05:32:25;;;;;;;10.07;2.35;;;;;;;-143.48;100.00;118439.88;5073564;28;20140;-28
2023/03/31 05:34:51;;;;;;;12.23;2.92;;;;;;;-143.48;100.00;118439.88;5073488;28;20024;-29
2023/03/31 05:37:19;;;;;;;13.55;3.05;;;;;;;-143.48;100.00;118439.88;5055199;28;20029;-28
2023/03/31 05:39:44;;;;;;;9.77;2.63;;;;;;;-143.48;100.00;118439.88;5073311;28;20638;-28
2023/03/31 05:42:10;;;;;;;10.82;2.80;;;;;;;-143.48;100.00;118439.88;5073214;28;20052;-27
2023/03/31 05:44:36;;;;;;;11.68;2.85;;;;;;;-143.48;100.00;118439.88;5073390;28;20024;-27
2023/03/31 05:47:01;;;;;;;8.80;2.28;;;;;;;-143.48;100.00;118439.88;5073285;28;20090;-28
2023/03/31 05:49:26;;;;;;;12.07;2.30;;;;;;;-143.48;100.00;118439.88;5076312;28;20074;-28
2023/03/31 05:51:52;;;;;;;11.32;2.85;;;;;;;-143.48;100.00;118439.88;5077292;28;20067;-27
2023/03/31 05:54:18;;;;;;;8.60;2.72;;;;;;;-143.48;100.00;118439.88;5077045;28;20056;-27
2023/03/31 05:56:43;;;;;;;9.30;3.13;;;;;;;-143.48;100.00;118439.88;5077449;28;20103;-27
2023/03/31 05:59:08;;;;;;;12.02;2.38;;;;;;;-143.48;100.00;118439.88;5077626;28;20146;-29
2023/03/31 06:01:34;;;;;;;11.43;2.50;;;;;;;-143.48;100.00;118439.88;5059096;28;20171;-28
2023/03/31 06:03:59;;;;;;;9.55;2.45;;;;;;;-143.48;100.00;118439.88;5058794;28;20109;-28
2023/03/31 06:06:25;;;;;;;9.65;2.38;;;;;;;-143.48;100.00;118439.88;5076896;28;20098;-28
2023/03/31 06:08:50;;;;;;;9.23;2.30;;;;;;;-143.48;100.00;118439.88;5077325;28;20126;-28
2023/03/31 06:11:19;;;;;;;8.15;2.38;;;;;;;-143.48;100.00;118439.88;5077231;28;20415;-28
2023/03/31 06:13:45;;;;;;;8.50;2.30;;;;;;;-143.48;100.00;118439.88;5077622;28;20016;-28
2023/03/31 06:16:12;;;;;;;10.57;3.10;;;;;;;-143.48;100.00;118439.88;5076008;28;20031;-29
2023/03/31 06:18:38;;;;;;;9.88;2.42;;;;;;;-143.48;100.00;118439.88;5058772;28;20028;-28
2023/03/31 06:21:04;;;;;;;9.70;2.35;;;;;;;-143.48;100.00;118439.88;5076479;28;20032;-30
2023/03/31 06:23:30;;;;;;;11.88;2.40;;;;;;;-143.48;100.00;118439.88;5076234;28;20021;-28
2023/03/31 06:26:01;;;;;;;10.88;2.28;;;;;;;-143.48;100.00;118439.88;5076169;28;20017;-28
2023/03/31 06:28:26;;;;;;;8.85;2.85;;;;;;;-143.48;100.00;118439.88;5076198;28;20066;-28
2023/03/31 06:30:59;;;;;;;7.80;2.35;;;;;;;-143.48;100.00;118439.88;5058095;28;20379;-28
2023/03/31 06:33:24;;;;;;;8.98;2.33;;;;;;;-143.48;100.00;118439.88;5076022;28;20510;-28
2023/03/31 06:35:50;;;;;;;9.02;2.40;;;;;;;-143.48;100.00;118439.88;5075921;28;20051;-28
2023/03/31 06:38:15;;;;;;;8.52;2.40;;;;;;;-143.48;100.00;118439.88;5076368;28;20028;-28
2023/03/31 06:40:41;;;;;;;11.90;2.40;;;;;;;-143.48;100.00;118439.88;5076329;28;20020;-28
2023/03/31 06:43:06;;;;;;;7.10;2.03;;;;;;;-143.48;100.00;118439.88;5077000;28;20063;-28
2023/03/31 06:45:31;;;;;;;10.93;2.40;;;;;;;-143.48;100.00;118439.88;5076287;28;20016;-28
2023/03/31 06:47:57;;;;;;;9.52;2.22;;;;;;;-143.48;100.00;118439.88;5076210;28;20032;-28
2023/03/31 06:50:22;;;;;;;10.27;2.20;;;;;;;-143.48;100.00;118439.88;5076149;28;20028;-28
2023/03/31 06:52:51;;;;;;;9.13;2.13;;;;;;;-143.48;100.00;118439.88;5076077;28;20021;-28
2023/03/31 06:55:16;;;;;;;6.43;1.95;;;;;;;-143.48;100.00;118439.88;5074690;28;20056;-28
2023/03/31 06:57:42;;;;;;;7.60;1.95;;;;;;;-143.48;100.00;118439.88;5073859;28;20060;-28
2023/03/31 07:00:08;;;;;;;10.48;2.58;;;;;;;-143.48;100.00;118439.88;5074093;28;20082;-28
2023/03/31 07:02:33;;;;;;;8.18;2.13;;;;;;;-143.48;100.00;118439.88;5075785;28;20024;-28
2023/03/31 07:04:58;;;;;;;8.20;1.98;;;;;;;-143.48;100.00;118439.88;5074714;28;20044;-27
2023/03/31 07:07:24;;;;;;;7.43;1.77;;;;;;;-143.48;100.00;118439.88;5075872;28;20027;-28
2023/03/31 07:09:49;;;;;;;4.90;1.92;;;;;;;-143.48;100.00;118439.88;5076586;28;20447;-28
2023/03/31 07:12:15;;;;;;;6.47;1.60;;;;;;;-143.48;100.00;118439.88;5076139;28;20040;-28
2023/03/31 07:14:40;;;;;;;6.65;1.58;;;;;;;-143.48;100.00;118439.88;5076021;28;20021;-28
2023/03/31 07:17:05;;;;;;;10.48;2.00;;;;;;;-143.48;100.00;118439.88;5075709;28;20115;-28
2023/03/31 07:19:31;;;;;;;5.68;1.60;;;;;;;-143.48;100.00;118439.88;5076090;28;20020;-28
2023/03/31 07:21:56;;;;;;;7.57;1.70;;;;;;;-143.48;100.00;118439.88;5074779;28;20031;-28
2023/03/31 07:24:21;;;;;;;6.78;1.65;;;;;;;-143.48;100.00;118439.88;5075517;28;20027;-28
2023/03/31 07:26:47;;;;;;;8.40;2.65;;;;;;;-143.48;100.00;118439.88;5075349;28;20021;-29
2023/03/31 07:29:13;;;;;;;6.82;1.60;;;;;;;-143.48;100.00;118439.88;5075511;28;20155;-29
2023/03/31 07:31:38;;;;;;;8.15;1.77;;;;;;;-143.48;100.00;118439.88;5075448;28;20067;-28
2023/03/31 07:34:04;;;;;;;5.78;1.70;;;;;;;-143.48;100.00;118439.88;5075718;28;20028;-28
2023/03/31 07:36:30;;;;;;;9.43;2.00;;;;;;;-143.48;100.00;118439.88;5075545;28;20025;-28
2023/03/31 07:38:56;;;;;;;5.50;1.75;;;;;;;-143.48;100.00;118439.88;5075358;28;20024;-28
2023/03/31 07:41:21;;;;;;;6.88;1.95;;;;;;;-143.48;100.00;118439.88;5075534;28;20039;-28
2023/03/31 07:43:48;;;;;;;6.20;1.77;;;;;;;-143.48;100.00;118439.88;5075279;28;20021;-28
2023/03/31 07:46:20;;;;;;;8.27;1.83;;;;;;;-143.48;100.00;118439.88;5075824;28;20020;-28
2023/03/31 07:48:46;;;;;;;6.22;1.92;;;;;;;-143.48;100.00;118439.88;5075072;28;20029;-28
2023/03/31 07:51:16;;;;;;;4.43;1.70;;;;;;;-143.48;100.00;118439.88;5075423;28;20030;-28
2023/03/31 07:53:43;;;;;;;6.93;1.52;;;;;;;-143.48;100.00;118439.88;5075333;28;20107;-28
2023/03/31 07:56:08;;;;;;;4.53;1.65;;;;;;;-143.48;100.00;118439.88;5074786;28;20027;-28
2023/03/31 07:58:33;;;;;;;8.48;1.70;;;;;;;-143.48;100.00;118439.88;5074922;28;20028;-27
2023/03/31 08:01:00;;;;;;;7.05;1.90;;;;;;;-143.48;100.00;118439.88;5074923;28;20028;-28
2023/03/31 08:03:25;;;;;;;7.88;1.80;;;;;;;-143.48;100.00;118439.88;5074498;28;20056;-27
2023/03/31 08:05:51;;;;;;;10.23;2.00;;;;;;;-143.48;100.00;118439.88;5074962;28;20026;-28
2023/03/31 08:08:16;;;;;;;8.43;2.10;;;;;;;-143.48;100.00;118439.88;5074870;28;20025;-27
2023/03/31 08:10:41;;;;;;;7.43;2.17;;;;;;;-143.48;100.00;118439.88;5074567;28;20031;-27
2023/03/31 08:13:07;;;;;;;8.95;2.20;;;;;;;-143.48;100.00;118439.88;5073645;28;20028;-27
2023/03/31 08:15:32;;;;;;;7.50;2.10;;;;;;;-143.48;100.00;118439.88;5074823;28;20028;-27
2023/03/31 08:17:57;;;;;;;7.70;1.90;;;;;;;-143.48;100.00;118439.88;5074505;28;20494;-27
2023/03/31 08:20:23;;;;;;;7.00;1.98;;;;;;;-143.48;100.00;118439.88;5073871;28;20098;-27
2023/03/31 08:22:48;;;;;;;7.97;2.17;;;;;;;-143.48;100.00;118439.88;5073576;28;20024;-27
2023/03/31 08:25:13;;;;;;;8.60;2.55;;;;;;;-143.48;100.00;118439.88;5074738;28;20024;-28
2023/03/31 08:27:39;;;;;;;11.02;2.40;;;;;;;-143.48;100.00;118439.88;5074403;28;20033;-28
2023/03/31 08:30:07;;;;;;;11.77;2.95;;;;;;;-143.48;99.85;118439.88;5073456;28;20021;-28
2023/03/31 08:32:33;;;;;;;7.75;2.40;;;;;;;-143.48;98.89;118439.88;5074778;28;20507;-28
2023/03/31 08:34:59;;;;;;;14.15;2.60;;;;;;;-143.48;98.90;118439.88;5074561;28;20020;-28
2023/03/31 08:37:27;;;;;;;11.48;2.80;;;;;;;-143.48;98.60;118439.88;5074659;28;20348;-27
2023/03/31 08:39:53;;;;;;;12.20;2.60;;;;;;;-143.48;98.17;118439.88;5074464;28;20414;-28
2023/03/31 08:42:36;;;;;;;10.10;2.80;;;;;;;-143.48;99.25;118439.88;5074288;28;20107;-28
2023/03/31 08:45:08;;;;;;;8.30;2.70;;;;;;;-143.48;99.33;118439.88;5074342;28;20122;-29
2023/03/31 08:47:36;;;;;;;8.90;2.95;;;;;;;-143.48;99.89;118439.88;5073890;28;20021;-28
2023/03/31 08:50:10;;;;;;;9.90;3.00;;;;;;;-143.48;100.00;118439.88;5074050;28;20028;-28
2023/03/31 08:52:59;;;;;;;10.38;2.70;;;;;;;-143.48;100.00;118439.88;5074515;28;20024;-28
2023/03/31 08:55:33;;;;;;;12.30;2.80;;;;;;;-143.48;100.00;118439.88;5073003;28;20486;-28
2023/03/31 08:58:42;;;;;;;16.52;3.30;;;;;;;-143.48;100.00;118439.88;5074946;28;20031;-28
2023/03/31 09:01:38;;;;;;;14.20;3.10;;;;;;;-143.48;100.00;118439.88;5034828;28;20044;-27
2023/03/31 09:04:26;;;;;;;12.13;3.60;;;;;;;-143.48;100.00;118439.88;5055395;28;20060;-28
2023/03/31 09:07:06;;;;;;;11.18;3.22;;;;;;;-143.48;100.00;118439.88;5073574;28;20028;-27
2023/03/31 09:09:40;;;;;;;12.05;3.40;;;;;;;-143.48;100.00;118439.88;5073867;28;20055;-28
2023/03/31 09:12:18;;;;;;;10.25;2.92;;;;;;;-143.48;100.00;118439.88;5073895;28;20425;-27
2023/03/31 09:15:07;;;;;;;10.30;3.13;;;;;;;-143.48;100.00;118439.88;5074103;28;20028;-28
2023/03/31 09:17:40;;;;;;;12.60;3.05;;;;;;;-143.48;100.00;118439.88;5074165;28;20060;-28
2023/03/31 09:20:18;;;;;;;11.48;3.30;;;;;;;-143.48;99.81;118439.88;5073880;28;20063;-28
2023/03/31 09:22:47;;;;;;;15.60;3.53;;;;;;;-143.48;99.30;118439.88;5073184;28;20059;-28
2023/03/31 09:25:16;;;;;;;17.45;3.40;;;;;;;-143.48;98.44;118439.88;5073770;28;20039;-28
2023/03/31 09:27:43;;;;;;;10.90;3.00;;;;;;;-143.48;98.25;118439.88;5073373;28;20028;-28
2023/03/31 09:30:19;;;;;;;12.10;3.33;;;;;;;-143.48;97.60;118439.88;5073684;28;20086;-28
2023/03/31 09:32:48;;;;;;;14.68;3.20;;;;;;;-143.48;96.17;118439.88;5073281;28;20062;-28
2023/03/31 09:35:24;;;;;;;16.23;3.40;;;;;;;-143.48;94.22;118439.88;5073028;28;20024;-28
2023/03/31 09:37:50;;;;;;;12.30;2.80;;;;;;;-143.48;90.06;118439.88;5073534;28;20020;-28
2023/03/31 09:40:19;;;;;;;20.00;4.40;;;;;;;-143.48;88.40;118439.88;5071814;28;20494;-31
2023/03/31 09:42:46;;;;;;;16.17;3.10;;;;;;;-143.48;91.41;118439.88;5070941;28;20078;-28
2023/03/31 09:45:16;;;;;;;17.38;3.63;;;;;;;-143.48;90.50;118439.88;5053127;28;20029;-29
2023/03/31 09:47:46;;;;;;;19.33;3.42;;;;;;;-143.48;91.69;118439.88;5071305;28;20026;-28
2023/03/31 09:50:13;;;;;;;14.02;2.92;;;;;;;-143.48;89.95;118439.88;5071604;28;20032;-28
2023/03/31 09:52:45;;;;;;;18.60;4.05;;;;;;;-143.48;90.30;118439.88;5053835;28;20087;-28
2023/03/31 09:55:35;;;;;;;19.40;3.70;;;;;;;-143.48;89.21;118439.88;5072087;28;20379;-28
2023/03/31 09:58:01;;;;;;;14.00;3.05;;;;;;;-143.48;89.65;118439.88;5073516;28;20282;-28
2023/03/31 10:00:27;;;;;;;20.00;3.55;;;;;;;-143.48;87.68;118439.88;5072864;28;20043;-29
2023/03/31 10:03:00;;;;;;;15.90;3.22;;;;;;;-143.48;86.95;118439.88;5071407;28;20060;-28
2023/03/31 10:05:30;;;;;;;13.07;3.15;;;;;;;-143.48;87.04;118439.88;5072422;28;20501;-30
2023/03/31 10:08:30;;;;;;;15.40;3.08;;;;;;;-143.48;85.84;118439.88;5054712;28;20047;-28
2023/03/31 10:11:07;;;;;;;17.02;3.10;;;;;;;-143.48;84.07;118439.88;5028121;28;20539;-28
2023/03/31 10:13:44;;;;;;;19.98;3.50;;;;;;;-143.48;85.55;118439.88;5052919;28;20029;-28
2023/03/31 10:16:14;;;;;;;18.45;3.60;;;;;;;-143.48;86.86;118439.88;5070615;28;20028;-27
2023/03/31 10:18:41;;;;;;;14.73;3.28;;;;;;;-143.48;86.90;118439.88;5070593;28;20029;-27
2023/03/31 10:21:19;;;;;;;14.50;3.25;;;;;;;-143.48;87.26;118439.88;5070444;28;20031;-28
2023/03/31 10:23:49;;;;;;;14.57;3.10;;;;;;;-143.48;86.20;118439.88;5070541;28;20379;-27
2023/03/31 10:26:21;;;;;;;13.98;3.63;;;;;;;-143.48;84.88;118439.88;5052508;28;20024;-28
2023/03/31 10:28:51;;;;;;;14.95;3.28;;;;;;;-143.48;84.73;118439.88;5072461;28;20044;-27
2023/03/31 10:31:17;;;;;;;14.43;3.10;;;;;;;-143.48;83.16;118439.88;5072279;28;20036;-28
2023/03/31 10:33:46;;;;;;;16.98;3.63;;;;;;;-143.48;83.45;118439.88;5070792;28;20020;-27
2023/03/31 10:36:22;;;;;;;14.63;3.60;;;;;;;-143.48;82.82;118439.88;5073562;28;20032;-28
2023/03/31 10:38:50;;;;;;;14.23;3.25;;;;;;;-143.48;82.89;118439.88;5076287;28;20021;-28
2023/03/31 10:41:26;;;;;;;23.00;3.22;;;;;;;-143.48;82.28;118439.88;5076408;28;20029;-28
2023/03/31 10:43:56;;;;;;;15.25;3.00;;;;;;;-143.48;82.28;118439.88;5075910;28;20024;-28
2023/03/31 10:46:42;;;;;;;14.82;3.03;;;;;;;-143.48;81.21;118439.88;5075336;28;20075;-29
2023/03/31 10:49:25;;;;;;;12.48;3.00;;;;;;;-143.48;80.04;118439.88;5059939;28;20048;-29
2023/03/31 10:52:01;;;;;;;12.65;2.70;;;;;;;-143.48;80.60;118439.88;5074209;28;20059;-28
2023/03/31 10:54:27;;;;;;;13.38;2.88;;;;;;;-143.48;81.10;118439.88;5073894;28;20025;-29
2023/03/31 10:57:00;;;;;;;13.77;2.97;;;;;;;-143.48;79.80;118439.88;5074751;28;20082;-28
2023/03/31 10:59:50;;;;;;;13.13;2.80;;;;;;;-143.48;82.05;118439.88;5073652;28;20394;-28
2023/03/31 11:02:34;;;;;;;13.45;3.08;;;;;;;-143.48;82.31;118439.88;5075148;28;20534;-28
2023/03/31 11:05:29;;;;;;;17.50;2.90;;;;;;;-143.48;84.44;118439.88;5075241;28;20048;-29
2023/03/31 11:08:22;;;;;;;18.95;2.88;;;;;;;-143.48;82.46;118439.88;5075544;28;20096;-29
2023/03/31 11:11:21;;;;;;;14.40;2.72;;;;;;;-143.48;82.59;118439.88;5057313;28;20104;-28
2023/03/31 11:14:04;;;;;;;16.00;2.53;;;;;;;-143.48;84.03;118439.88;5074684;28;20040;-28